CA Drinking Water Watch

MOUNTAIN HIGH EAST SKI AREA (1900581)

All Sampling Results From To

WELL 04 (CA1900581_004_004)

Click to hide / show columns: Analyte Number | Analyte Name | Sampling Date | Detected Level | Less Than | RL | Counting Error (+/-) | MCL | DLR | Unit | Lab Sample ID | Lab | ELAP | Method |

Some columns are not shown for clarity. Please use the above links to unhide them.

Tips on Using Table

Analyte Number Analyte Name Sampling Date Results Counting Error (+/-) MCL DLR Unit Lab Sample ID Lab ELAP Method
Detected Level Less Than RL
Analyte Number Analyte Name Sampling Date Detected Level Less Than RL Counting Error (+/-) MCL DLR Unit Lab Sample ID Lab ELAP Method
1040 NITRATE 08-07-2023 < 0.4 10 .4 MG/L 23H0743-04 CLINICAL LABORATORY OF SAN BERNARDINO 1088 EPA 300.0
1041 NITRITE 08-25-2022 < 0.4 1 .4 MG/L 22H2618-04 CLINICAL LABORATORY OF SAN BERNARDINO 1088 EPA 300.0
1040 NITRATE 08-25-2022 < 0.4 10 .4 MG/L 22H2618-04 CLINICAL LABORATORY OF SAN BERNARDINO 1088 EPA 300.0
1040 NITRATE 09-07-2021 0.60 0.4 10 .4 MG/L 21I0426-04 CLINICAL LABORATORY OF SAN BERNARDINO 1088 EPA 300.0
1041 NITRITE 08-24-2020 < 0.4 1 .4 MG/L 22930042008240925N CLINICAL LABORATORY OF SAN BERNARDINO 1088
1040 NITRATE 08-24-2020 0.4300000 0.4 10 .4 MG/L 22930042008240925N CLINICAL LABORATORY OF SAN BERNARDINO 1088
1040 NITRATE 07-31-2018 < 0.4 10 .4 MG/L 22930041807311000N CLINICAL LABORATORY OF SAN BERNARDINO 1088
1080 CHROMIUM, HEX 12-20-2017 < 1 1 UG/L 22930041712201120I CLINICAL LABORATORY OF SAN BERNARDINO 1088
1040 NITRATE 08-08-2017 0.5800000 0.4 10 .4 MG/L 22930041708081145N CLINICAL LABORATORY OF SAN BERNARDINO 1088
1041 NITRITE 06-24-2015 < 400 1000 400 UG/L 22930041506240930N CLINICAL LABORATORY OF SAN BERNARDINO 1088
C255 NITRATE (AS NO3) 06-24-2015 < 2 45 2 MG/L 22930041506240930N CLINICAL LABORATORY OF SAN BERNARDINO 1088
1080 CHROMIUM, HEX 09-11-2014 < 1 10 1 UG/L 22930041409110930I CLINICAL LABORATORY OF SAN BERNARDINO 1088
1028 IRON 06-27-2002 < 100 300 100 UG/L 22930040206271410G L.A. CO. AGRICULTURAL COMMISSIONER /W&M 1430
1050 SILVER 06-27-2002 < 10 100 10 UG/L 22930040206271410G L.A. CO. AGRICULTURAL COMMISSIONER /W&M 1430
1929 ALKALINITY, CARBONATE 06-27-2002 < MG/L 22930040206271410G L.A. CO. AGRICULTURAL COMMISSIONER /W&M 1430
1095 ZINC 06-27-2002 267.0000000 50 5000 50 UG/L 22930040206271410G L.A. CO. AGRICULTURAL COMMISSIONER /W&M 1430
0100 TURBIDITY 06-27-2002 0.5300000 0.1 5 .1 NTU 22930040206271410G L.A. CO. AGRICULTURAL COMMISSIONER /W&M 1430
1928 ALKALINITY, BICARBONATE 06-27-2002 319.0000000 MG/L 22930040206271410G L.A. CO. AGRICULTURAL COMMISSIONER /W&M 1430
1032 MANGANESE 06-27-2002 < 20 50 20 UG/L 22930040206271410G L.A. CO. AGRICULTURAL COMMISSIONER /W&M 1430
1017 CHLORIDE 06-27-2002 21.1000000 500 MG/L 22930040206271410G L.A. CO. AGRICULTURAL COMMISSIONER /W&M 1430
1930 TDS 06-27-2002 352.0000000 1000 MG/L 22930040206271410G L.A. CO. AGRICULTURAL COMMISSIONER /W&M 1430
1055 SULFATE 06-27-2002 22.3000000 0.5 500 .5 MG/L 22930040206271410G L.A. CO. AGRICULTURAL COMMISSIONER /W&M 1430
1915 HARDNESS, TOTAL (AS CACO3) 06-27-2002 304.0000000 MG/L 22930040206271410G L.A. CO. AGRICULTURAL COMMISSIONER /W&M 1430
1064 CONDUCTIVITY @ 25 C UMHOS/CM 06-27-2002 553.0000000 1600 UMHO/CM 22930040206271410G L.A. CO. AGRICULTURAL COMMISSIONER /W&M 1430
1052 SODIUM 06-27-2002 12.0000000 MG/L 22930040206271410G L.A. CO. AGRICULTURAL COMMISSIONER /W&M 1430
1021 HYDROXIDE AS CALCIUM CARBONATE 06-27-2002 < MG/L 22930040206271410G L.A. CO. AGRICULTURAL COMMISSIONER /W&M 1430
1925 PH 06-27-2002 7.4600000 pH 22930040206271410G L.A. CO. AGRICULTURAL COMMISSIONER /W&M 1430
1927 ALKALINITY, TOTAL 06-27-2002 261.0000000 MG/L 22930040206271410G L.A. CO. AGRICULTURAL COMMISSIONER /W&M 1430
1031 MAGNESIUM 06-27-2002 24.3000000 MG/L 22930040206271410G L.A. CO. AGRICULTURAL COMMISSIONER /W&M 1430
1919 CALCIUM 06-27-2002 81.8000000 MG/L 22930040206271410G L.A. CO. AGRICULTURAL COMMISSIONER /W&M 1430
1010 BARIUM 06-27-2002 < 100 1000 100 UG/L 22930040206271410I L.A. CO. AGRICULTURAL COMMISSIONER /W&M 1430
1074 ANTIMONY, TOTAL 06-27-2002 < 6 6 6 UG/L 22930040206271410I L.A. CO. AGRICULTURAL COMMISSIONER /W&M 1430
1045 SELENIUM 06-27-2002 < 5 50 5 UG/L 22930040206271410I L.A. CO. AGRICULTURAL COMMISSIONER /W&M 1430
1002 ALUMINUM 06-27-2002 < 50 1000 50 UG/L 22930040206271410I L.A. CO. AGRICULTURAL COMMISSIONER /W&M 1430
1036 NICKEL 06-27-2002 < 10 100 10 UG/L 22930040206271410I L.A. CO. AGRICULTURAL COMMISSIONER /W&M 1430
1025 FLUORIDE 06-27-2002 0.3900000 0.1 1.7 .1 MG/L 22930040206271410I L.A. CO. AGRICULTURAL COMMISSIONER /W&M 1430
1015 CADMIUM 06-27-2002 < 1 5 1 UG/L 22930040206271410I L.A. CO. AGRICULTURAL COMMISSIONER /W&M 1430
1020 CHROMIUM 06-27-2002 < 10 50 10 UG/L 22930040206271410I L.A. CO. AGRICULTURAL COMMISSIONER /W&M 1430
1035 MERCURY 06-27-2002 < 1 2 1 UG/L 22930040206271410I L.A. CO. AGRICULTURAL COMMISSIONER /W&M 1430
1005 ARSENIC 06-27-2002 < 2 50 2 UG/L 22930040206271410I L.A. CO. AGRICULTURAL COMMISSIONER /W&M 1430
1030 LEAD 06-27-2002 < 5 5 UG/L 22930040206271410L L.A. CO. AGRICULTURAL COMMISSIONER /W&M 1430
1022 COPPER, FREE 06-27-2002 < 50 1000 50 UG/L 22930040206271410L L.A. CO. AGRICULTURAL COMMISSIONER /W&M 1430
1079 BORON, TOTAL 06-27-2002 144.0000000 100 100 UG/L 22930040206271410O L.A. CO. AGRICULTURAL COMMISSIONER /W&M 1430
C164 LANGELIER INDEX AT SOURCE TEMP. 06-27-2002 0.3370000 LANG 22930040206271410W L.A. CO. AGRICULTURAL COMMISSIONER /W&M 1430

RL – Reporting Level means the level to which the laboratory reported the presence of an analyte. For radionuclides, Reporting Level is the MDA95.

DLR – Detection Limit for purposes of Reporting (DLR) means the designated minimum level at or above which any analytical finding of a contaminant in drinking water resulting from monitoring required under Chapter 15 of Title 22 shall be reported to the State Board (California Code of Regulations Section § 64400.34)

For addtional definitions, please refer to our data dictionary.